Time;durP1;ratioP1;P1;durP2;ratioP2;P2;SDS_P1;SDS_P2;PMS_P1;PMS_P2;Temp;Humidity;BMP_temperature;BMP_pressure;BME280_temperature;BME280_humidity;BME280_pressure;Samples;Min_cycle;Max_cycle;Signal;HPM_P1;HPM_P2
2021/04/06 04:38:05;;;;;;;16.62;12.33;;;;;;;2.86;91.68;99222.00;1710203;83;21171;-47
2021/04/06 04:40:33;;;;;;;16.75;11.88;;;;;;;3.02;91.13;99220.50;1682755;83;21183;-46
2021/04/06 04:43:02;;;;;;;21.07;12.33;;;;;;;3.16;90.69;99216.78;1669817;84;21223;-46
2021/04/06 04:45:30;;;;;;;18.15;12.03;;;;;;;3.25;90.12;99218.20;1679861;83;21179;-39
2021/04/06 04:47:58;;;;;;;19.82;12.05;;;;;;;3.34;89.76;99213.55;1626009;86;21219;-46
2021/04/06 04:50:26;;;;;;;16.27;12.50;;;;;;;3.43;89.34;99222.72;1672093;83;21179;-47
2021/04/06 04:52:54;;;;;;;18.73;13.55;;;;;;;3.51;88.98;99223.66;1670739;84;21174;-40
2021/04/06 04:55:22;;;;;;;24.82;13.10;;;;;;;3.57;88.72;99222.44;1662987;84;21752;-38
2021/04/06 04:57:58;;;;;;;18.77;12.15;;;;;;;3.62;88.22;99216.89;1667657;84;21236;-38
2021/04/06 05:00:31;;;;;;;18.90;12.68;;;;;;;3.67;88.30;99218.23;1667775;84;21195;-46
2021/04/06 05:03:05;;;;;;;21.62;13.48;;;;;;;3.71;88.32;99231.23;1633839;84;21727;-38
2021/04/06 05:05:33;;;;;;;25.35;14.53;;;;;;;3.77;88.28;99225.65;1671448;84;21192;-39
2021/04/06 05:08:01;;;;;;;18.95;14.05;;;;;;;3.83;88.20;99224.02;1665221;84;21136;-38
2021/04/06 05:10:30;;;;;;;18.25;12.90;;;;;;;3.88;88.26;99224.91;1667070;84;21200;-38
2021/04/06 05:12:59;;;;;;;20.20;13.78;;;;;;;3.94;87.66;99218.92;1670124;84;21334;-39
2021/04/06 05:15:30;;;;;;;18.57;13.32;;;;;;;3.98;87.81;99218.97;1656986;84;21175;-47
2021/04/06 05:17:58;;;;;;;21.20;13.40;;;;;;;4.00;87.89;99220.27;1662660;84;21167;-39
2021/04/06 05:20:30;;;;;;;19.60;12.98;;;;;;;4.05;87.91;99218.59;1659710;84;21189;-38
2021/04/06 05:23:01;;;;;;;20.37;12.47;;;;;;;4.07;87.59;99227.69;1638127;85;22002;-39
2021/04/06 05:25:44;;;;;;;18.07;12.43;;;;;;;4.03;87.37;99225.49;1653934;84;21156;-46
2021/04/06 05:29:07;;;;;;;22.50;13.75;;;;;;;4.01;87.43;99223.33;1653599;84;21704;-47
2021/04/06 05:32:35;;;;;;;20.85;12.75;;;;;;;3.98;87.55;99236.22;1650626;84;21180;-47
2021/04/06 05:39:57;;;;;;;19.12;11.83;;;;;;;4.03;88.32;99237.14;1662073;83;21152;-47
2021/04/06 05:47:49;;;;;;;18.42;11.28;;;;;;;4.08;88.61;99235.89;1679957;83;21591;-48
2021/04/06 05:51:05;;;;;;;20.08;12.45;;;;;;;4.20;89.07;99226.51;1686309;83;21120;-46
2021/04/06 05:53:33;;;;;;;18.98;13.95;;;;;;;4.31;88.90;99217.97;1688430;83;21173;-47
2021/04/06 05:56:03;;;;;;;17.10;13.10;;;;;;;4.39;89.22;99221.05;1680301;84;21589;-45
2021/04/06 05:58:32;;;;;;;17.60;13.80;;;;;;;4.52;89.13;99216.81;1674858;84;21199;-45
2021/04/06 06:01:00;;;;;;;18.02;13.32;;;;;;;4.67;88.82;99229.02;1679959;84;21188;-48
2021/04/06 06:03:28;;;;;;;21.05;14.10;;;;;;;4.85;88.45;99222.66;1679074;83;21160;-47
2021/04/06 06:05:56;;;;;;;19.65;11.60;;;;;;;5.04;87.79;99227.50;1679407;84;21717;-47
2021/04/06 06:08:25;;;;;;;15.50;11.05;;;;;;;5.21;86.99;99227.16;1677235;83;21656;-49
2021/04/06 06:11:05;;;;;;;14.80;10.88;;;;;;;5.37;85.72;99219.02;1680173;84;21488;-47
2021/04/06 06:13:36;;;;;;;15.70;9.75;;;;;;;5.53;85.10;99226.00;1677741;84;21331;-47
2021/04/06 06:16:16;;;;;;;15.15;9.55;;;;;;;5.72;84.05;99216.53;1675045;83;21586;-40
2021/04/06 06:19:50;;;;;;;10.90;7.25;;;;;;;5.92;83.59;99204.08;1675425;83;21407;-38
2021/04/06 06:32:15;;;;;;;13.08;6.70;;;;;;;6.37;78.63;99218.36;1671351;83;21348;-46
2021/04/06 06:36:18;;;;;;;11.57;7.47;;;;;;;6.55;77.34;99221.41;1647441;85;21154;-46
2021/04/06 06:40:02;;;;;;;13.20;7.00;;;;;;;6.61;76.18;99221.41;1631591;86;21216;-38
2021/04/06 06:42:48;;;;;;;7.85;6.12;;;;;;;6.72;76.28;99208.36;1675687;84;21139;-38
2021/04/06 06:45:25;;;;;;;10.30;6.35;;;;;;;6.87;74.77;99200.98;1666732;84;21332;-38
2021/04/06 06:47:55;;;;;;;10.55;6.37;;;;;;;6.98;74.91;99202.27;1647305;86;21156;-47
2021/04/06 06:50:26;;;;;;;11.35;6.08;;;;;;;7.13;75.07;99207.39;1676811;84;21306;-39
2021/04/06 06:52:56;;;;;;;7.65;6.00;;;;;;;7.33;72.84;99215.14;1682445;84;21773;-47
2021/04/06 06:55:25;;;;;;;9.55;5.87;;;;;;;7.47;71.70;99203.78;1683131;84;21176;-47
2021/04/06 06:58:06;;;;;;;7.92;5.60;;;;;;;7.54;70.88;99198.55;1644522;86;21220;-47
2021/04/06 07:00:34;;;;;;;9.50;5.78;;;;;;;7.61;69.40;99193.77;1678190;83;21181;-47
2021/04/06 07:03:15;;;;;;;9.53;5.03;;;;;;;7.72;70.64;99186.75;1678948;83;21593;-47
2021/04/06 07:05:42;;;;;;;10.63;5.90;;;;;;;7.90;70.15;99198.36;1678134;84;21233;-46
2021/04/06 07:08:11;;;;;;;13.45;5.20;;;;;;;8.08;67.33;99204.31;1647640;86;21149;-47
2021/04/06 07:10:40;;;;;;;8.95;5.17;;;;;;;8.17;68.86;99211.59;1632334;86;21608;-46
2021/04/06 07:13:20;;;;;;;9.10;5.57;;;;;;;8.22;67.37;99204.62;1630760;86;21168;-46
2021/04/06 07:15:50;;;;;;;12.88;5.67;;;;;;;8.24;67.70;99208.09;1646074;85;21182;-46
2021/04/06 07:18:24;;;;;;;7.22;5.58;;;;;;;8.22;65.97;99220.69;1663612;84;21163;-39
2021/04/06 07:21:00;;;;;;;11.83;6.00;;;;;;;8.16;66.13;99215.09;1648774;84;21314;-46
2021/04/06 07:23:37;;;;;;;8.50;5.50;;;;;;;8.13;67.21;99215.13;1671319;83;21685;-47
2021/04/06 07:26:32;;;;;;;10.50;5.85;;;;;;;8.19;68.09;99208.56;1658281;83;22092;-42
2021/04/06 07:29:00;;;;;;;7.67;5.37;;;;;;;8.36;67.42;99212.38;1672875;83;21730;-46
2021/04/06 07:31:34;;;;;;;10.95;6.58;;;;;;;8.58;67.27;99210.45;1642245;85;22034;-46
2021/04/06 07:34:10;;;;;;;8.93;5.85;;;;;;;8.74;67.20;99201.58;1643160;85;21204;-45
2021/04/06 07:36:37;;;;;;;8.63;5.45;;;;;;;8.86;66.51;99198.42;1681445;83;21616;-46
2021/04/06 07:39:08;;;;;;;11.15;5.95;;;;;;;8.97;64.97;99198.73;1624014;86;21711;-46
2021/04/06 07:41:41;;;;;;;8.40;5.40;;;;;;;9.00;65.29;99200.02;1622534;87;21461;-38
2021/04/06 07:44:10;;;;;;;7.97;5.28;;;;;;;9.02;63.96;99218.27;1631044;86;21623;-38
2021/04/06 07:46:44;;;;;;;7.65;5.37;;;;;;;9.03;62.53;99201.28;1643307;84;21168;-38
2021/04/06 07:49:24;;;;;;;7.25;5.72;;;;;;;9.12;63.64;99203.38;1686662;84;21171;-39
2021/04/06 07:51:54;;;;;;;6.60;5.10;;;;;;;9.14;62.74;99205.08;1655783;84;21559;-38
2021/04/06 07:54:37;;;;;;;8.45;5.30;;;;;;;9.05;62.17;99207.36;1680334;83;21225;-38
2021/04/06 07:57:05;;;;;;;7.50;5.17;;;;;;;9.04;62.87;99203.44;1656076;85;21667;-39
2021/04/06 07:59:38;;;;;;;7.60;5.75;;;;;;;9.05;63.01;99217.80;1630721;86;21186;-46
2021/04/06 08:02:25;;;;;;;7.67;4.50;;;;;;;9.08;61.87;99210.81;1615841;86;21226;-38
2021/04/06 08:04:58;;;;;;;6.55;4.72;;;;;;;9.21;62.64;99197.59;1597138;86;21178;-39
2021/04/06 08:07:34;;;;;;;7.37;5.17;;;;;;;9.47;63.26;99196.42;1686742;83;21175;-47
2021/04/06 08:10:14;;;;;;;17.23;4.95;;;;;;;9.65;60.79;99196.62;1640835;85;21207;-50
2021/04/06 08:12:41;;;;;;;8.80;4.37;;;;;;;9.64;61.42;99207.52;1680153;84;21235;-46
2021/04/06 08:15:15;;;;;;;7.15;4.33;;;;;;;9.59;60.26;99194.51;1677066;84;21690;-47
2021/04/06 08:18:30;;;;;;;11.33;5.05;;;;;;;9.66;59.95;99184.84;1675643;84;22274;-47
2021/04/06 08:21:09;;;;;;;7.37;4.05;;;;;;;9.73;60.02;99191.70;1678286;84;21211;-47
2021/04/06 08:23:59;;;;;;;5.30;4.30;;;;;;;9.86;61.18;99192.41;1678123;83;21518;-46
2021/04/06 08:27:33;;;;;;;5.92;3.83;;;;;;;10.03;60.77;99170.81;1682435;83;21163;-46
2021/04/06 08:35:25;;;;;;;4.28;3.58;;;;;;;10.44;57.64;99178.45;1683874;83;21801;-38
2021/04/06 08:42:58;;;;;;;3.33;2.87;;;;;;;10.25;59.39;99164.80;1675065;83;21127;-46
2021/04/06 08:46:00;;;;;;;4.05;3.02;;;;;;;10.50;58.43;99184.02;1635997;84;26277;-38
2021/04/06 08:48:49;;;;;;;6.80;2.65;;;;;;;10.68;56.64;99181.53;1620764;86;21675;-39
2021/04/06 08:51:31;;;;;;;6.15;2.70;;;;;;;10.89;56.40;99168.02;1625277;86;21195;-38
2021/04/06 08:54:01;;;;;;;11.45;2.40;;;;;;;11.08;53.05;99164.63;1618068;86;21179;-38
2021/04/06 08:56:35;;;;;;;3.83;2.55;;;;;;;11.24;52.67;99163.40;1617750;87;21286;-38
2021/04/06 08:59:33;;;;;;;3.80;2.50;;;;;;;11.35;50.53;99158.80;1791824;78;22280;-40
2021/04/06 09:02:15;;;;;;;5.72;2.30;;;;;;;11.34;52.48;99158.39;1683011;84;21706;-40
2021/04/06 09:04:49;;;;;;;4.25;2.22;;;;;;;11.27;52.03;99158.11;1680089;83;21499;-39
2021/04/06 09:07:28;;;;;;;4.03;2.20;;;;;;;11.28;52.32;99153.73;1705848;82;21179;-39
2021/04/06 09:35:33;;;;;;;3.10;1.42;;;;;;;11.68;48.82;99172.08;1745309;81;21642;-39
2021/04/06 09:39:20;;;;;;;10.50;1.67;;;;;;;11.64;49.22;99150.31;1731984;81;21152;-41
2021/04/06 09:42:06;;;;;;;3.77;2.35;;;;;;;11.71;46.97;99156.27;1625247;87;21205;-39
2021/04/06 09:44:38;;;;;;;5.03;1.60;;;;;;;11.55;47.74;99157.08;1681834;85;21185;-39
2021/04/06 09:47:12;;;;;;;6.12;1.57;;;;;;;11.44;47.43;99150.77;1683795;83;21227;-40
2021/04/06 09:49:51;;;;;;;1.98;1.60;;;;;;;11.51;48.62;99151.48;1650855;85;21523;-47
2021/04/06 09:52:23;;;;;;;5.40;1.32;;;;;;;11.68;47.05;99152.42;1627969;86;21188;-47
2021/04/06 09:54:57;;;;;;;3.57;1.70;;;;;;;11.78;46.03;99147.84;1646931;85;21186;-46
2021/04/06 09:57:34;;;;;;;4.45;1.95;;;;;;;11.80;44.44;99140.35;1654942;84;21625;-46
2021/04/06 10:00:08;;;;;;;2.00;1.40;;;;;;;11.93;45.47;99112.12;1671742;84;21186;-46
2021/04/06 10:02:36;;;;;;;2.50;1.50;;;;;;;12.03;44.89;99145.53;1635878;86;21645;-46
2021/04/06 10:05:16;;;;;;;3.83;1.65;;;;;;;12.05;45.07;99147.66;1671465;84;21655;-46
2021/04/06 10:08:05;;;;;;;1.77;1.35;;;;;;;12.01;44.48;99157.83;1670168;84;21677;-46
2021/04/06 10:11:29;;;;;;;3.08;2.00;;;;;;;12.06;44.76;99133.65;1666351;84;21204;-46
2021/04/06 10:14:39;;;;;;;7.53;1.85;;;;;;;12.17;44.37;99132.94;1658154;83;21207;-46
2021/04/06 10:26:32;;;;;;;3.20;1.95;;;;;;;12.33;43.05;99113.30;1659324;85;21717;-40
2021/04/06 10:30:09;;;;;;;2.75;2.10;;;;;;;12.46;44.12;99113.38;1661611;85;21190;-38
2021/04/06 10:33:40;;;;;;;3.37;2.12;;;;;;;13.02;43.26;99108.34;1670414;84;21213;-40
2021/04/06 10:37:27;;;;;;;4.12;2.12;;;;;;;13.02;41.10;99113.59;1670761;85;21147;-40
2021/04/06 10:40:43;;;;;;;6.08;2.12;;;;;;;12.81;39.93;99102.38;1673907;84;21358;-47
2021/04/06 10:43:20;;;;;;;6.08;2.12;;;;;;;13.41;39.10;99106.81;1671917;84;21167;-45
2021/04/06 10:45:51;;;;;;;4.15;2.30;;;;;;;13.92;38.50;99123.64;1673073;84;21615;-39
2021/04/06 10:48:22;;;;;;;;;;;;;;;14.16;38.31;99106.20;1677704;84;21187;-46
2021/04/06 10:51:01;;;;;;;10.68;2.47;;;;;;;14.12;38.12;99108.06;1681802;84;20567;-45
2021/04/06 10:53:36;;;;;;;3.92;1.92;;;;;;;14.03;38.50;99097.83;1605886;88;21305;-41
2021/04/06 10:56:35;;;;;;;5.60;2.37;;;;;;;13.76;38.47;99100.46;1584683;89;21183;-39
2021/04/06 10:59:17;;;;;;;3.08;1.90;;;;;;;13.64;39.55;99087.71;1783660;78;22652;-46
2021/04/06 11:01:52;;;;;;;7.50;2.30;;;;;;;13.79;39.38;99099.48;1778465;78;21114;-47
2021/04/06 11:04:32;;;;;;;4.67;1.95;;;;;;;14.26;39.25;99112.84;1774328;78;21300;-46
2021/04/06 11:07:02;;;;;;;6.75;1.72;;;;;;;14.46;37.23;99095.94;1773213;78;21584;-46
2021/04/06 11:09:45;;;;;;;3.42;1.82;;;;;;;14.84;37.09;99095.05;1776845;78;21719;-46
2021/04/06 11:12:15;;;;;;;7.12;2.15;;;;;;;15.16;36.63;99082.88;1751167;78;21990;-47
2021/04/06 11:14:47;;;;;;;4.05;1.80;;;;;;;14.89;35.92;99090.02;1774897;78;21203;-48
2021/04/06 11:17:23;;;;;;;6.33;2.00;;;;;;;14.87;37.01;99074.75;1777893;78;21331;-40
2021/04/06 11:20:00;;;;;;;6.60;2.17;;;;;;;14.98;37.25;99074.36;1780859;78;21219;-46
2021/04/06 11:22:31;;;;;;;5.55;2.52;;;;;;;14.97;36.65;99087.59;1781519;78;21518;-40
2021/04/06 11:24:59;;;;;;;10.30;1.77;;;;;;;14.82;36.39;99050.82;1777023;78;21183;-47
2021/04/06 11:27:27;;;;;;;9.28;2.08;;;;;;;14.58;36.38;99071.86;1736390;81;21149;-39
2021/04/06 11:29:55;;;;;;;10.72;2.45;;;;;;;14.24;36.49;99077.86;1718529;83;21702;-40
2021/04/06 11:32:23;;;;;;;4.70;2.20;;;;;;;13.91;37.62;99095.61;1724139;81;21220;-39
2021/04/06 11:34:51;;;;;;;5.30;2.15;;;;;;;13.76;39.19;99075.48;1746520;81;21151;-39
2021/04/06 11:37:19;;;;;;;10.13;2.00;;;;;;;13.58;38.48;99070.37;1695530;81;21181;-41
2021/04/06 11:39:47;;;;;;;3.30;2.12;;;;;;;13.57;38.96;99063.85;1734545;81;21655;-39
2021/04/06 11:42:16;;;;;;;2.60;1.92;;;;;;;13.43;38.47;99080.03;1716064;81;21326;-46
2021/04/06 11:44:44;;;;;;;3.75;2.15;;;;;;;13.24;38.36;99075.80;1718913;81;21755;-39
2021/04/06 11:47:12;;;;;;;3.67;1.90;;;;;;;13.03;39.30;99073.31;1716685;81;21206;-40
2021/04/06 11:49:40;;;;;;;6.92;1.72;;;;;;;13.04;39.25;99059.72;1717815;81;21158;-41
2021/04/06 11:52:08;;;;;;;3.67;1.77;;;;;;;13.18;38.33;99068.07;1723761;81;21602;-38
2021/04/06 11:54:37;;;;;;;7.75;1.82;;;;;;;13.43;38.32;99064.27;1719426;81;21150;-39
2021/04/06 11:57:05;;;;;;;5.47;1.50;;;;;;;13.41;36.98;99073.11;1719517;81;21982;-42
2021/04/06 11:59:34;;;;;;;5.72;1.82;;;;;;;13.36;37.07;99054.86;1705943;82;21170;-38
2021/04/06 12:02:04;;;;;;;7.45;1.60;;;;;;;13.40;37.47;99042.50;1721343;82;21173;-39
2021/04/06 12:04:32;;;;;;;2.75;1.75;;;;;;;13.58;37.20;99037.98;1719555;82;21298;-39
2021/04/06 12:07:00;;;;;;;4.05;1.50;;;;;;;13.78;37.38;99049.14;1765406;79;21158;-39
2021/04/06 12:09:28;;;;;;;7.92;2.10;;;;;;;13.90;36.37;99030.34;1760545;79;21626;-39
2021/04/06 12:11:55;;;;;;;2.60;1.67;;;;;;;13.72;36.51;99025.23;1762476;80;21139;-40
2021/04/06 12:14:23;;;;;;;1.57;1.32;;;;;;;13.40;37.21;99036.80;1780071;79;21984;-40
2021/04/06 12:16:51;;;;;;;4.25;1.52;;;;;;;13.26;38.21;99012.25;1783013;79;21159;-40
2021/04/06 12:19:19;;;;;;;1.98;1.40;;;;;;;13.24;38.70;99036.86;1705914;83;21498;-39
2021/04/06 12:21:47;;;;;;;7.20;2.02;;;;;;;13.27;39.36;99032.34;1774500;79;21609;-47
2021/04/06 12:24:16;;;;;;;6.72;1.40;;;;;;;13.39;38.32;99058.69;1781186;79;21167;-40
2021/04/06 12:26:44;;;;;;;10.55;2.25;;;;;;;13.52;36.88;99053.94;1763701;79;21647;-40
2021/04/06 12:29:12;;;;;;;2.67;1.52;;;;;;;13.46;37.83;99051.05;1773895;79;21143;-47
2021/04/06 12:31:40;;;;;;;4.87;1.70;;;;;;;13.37;38.30;99029.45;1770754;80;21162;-47
